createdAt,value
2022-08-23T00:00:26.044Z,59.75
2022-08-23T00:01:25.133Z,59.68
2022-08-23T00:02:25.393Z,59.98
2022-08-23T00:03:25.589Z,59.98
2022-08-23T00:04:30.418Z,60.17
2022-08-23T00:05:26.876Z,60.28
2022-08-23T00:06:26.192Z,60.08
2022-08-23T00:07:26.243Z,59.88
2022-08-23T00:08:26.398Z,60.48
2022-08-23T00:09:26.629Z,60.08
2022-08-23T00:10:26.778Z,60.28
2022-08-23T00:11:27.429Z,60.58
2022-08-23T00:12:27.118Z,60.68
2022-08-23T00:13:28.523Z,60.88
2022-08-23T00:14:28.485Z,61.10
2022-08-23T00:15:27.662Z,61.21
2022-08-23T00:16:27.931Z,61.10
2022-08-23T00:17:34.380Z,61.41
2022-08-23T00:18:30.433Z,61.41
2022-08-23T00:19:29.201Z,61.51
2022-08-23T00:20:29.496Z,61.10
2022-08-23T00:21:28.658Z,60.80
2022-08-23T00:22:28.819Z,60.61
2022-08-23T00:23:28.979Z,60.71
2022-08-23T00:24:29.197Z,60.71
2022-08-23T00:25:29.338Z,60.71
2022-08-23T00:26:29.624Z,61.00
2022-08-23T00:27:29.768Z,61.41
2022-08-23T00:28:29.880Z,61.00
2022-08-23T00:29:30.048Z,60.91
2022-08-23T00:30:30.267Z,60.80
2022-08-23T00:31:30.378Z,61.00
2022-08-23T00:32:30.538Z,60.80
2022-08-23T00:33:30.772Z,60.61
2022-08-23T00:34:30.859Z,60.91
2022-08-23T00:35:31.020Z,61.00
2022-08-23T00:36:31.344Z,61.00
2022-08-23T00:37:31.400Z,61.10
2022-08-23T00:38:33.355Z,61.00
2022-08-23T00:39:31.820Z,61.00
2022-08-23T00:40:31.916Z,60.80
2022-08-23T00:41:32.079Z,61.00
2022-08-23T00:42:32.285Z,60.91
2022-08-23T00:43:32.400Z,61.21
2022-08-23T00:44:32.631Z,61.51
2022-08-23T00:45:32.782Z,61.71
2022-08-23T00:46:32.950Z,62.30
2022-08-23T00:47:33.111Z,62.73
2022-08-23T00:48:33.377Z,63.13
2022-08-23T00:49:33.501Z,62.83
2022-08-23T00:50:33.651Z,62.83
2022-08-23T00:51:43.123Z,63.33
2022-08-23T00:52:34.981Z,64.43
2022-08-23T00:53:34.170Z,64.33
2022-08-23T00:54:34.422Z,63.63
2022-08-23T00:55:34.492Z,64.96
2022-08-23T00:56:34.672Z,64.56
2022-08-23T00:57:34.912Z,64.76
2022-08-23T00:58:35.037Z,65.16
2022-08-23T00:59:35.181Z,64.56
2022-08-23T01:00:35.382Z,64.56
2022-08-23T01:01:35.603Z,64.66
2022-08-23T01:02:35.693Z,64.86
2022-08-23T01:03:38.601Z,65.46
2022-08-23T01:04:36.109Z,65.46
2022-08-23T01:05:36.213Z,65.16
2022-08-23T01:06:36.391Z,65.76
2022-08-23T01:07:36.543Z,65.96
2022-08-23T01:08:36.733Z,65.86
2022-08-23T01:09:36.893Z,65.76
2022-08-23T01:10:37.083Z,65.86
2022-08-23T01:11:37.340Z,66.16
2022-08-23T01:12:37.442Z,65.86
2022-08-23T01:13:37.599Z,66.06
2022-08-23T01:14:37.864Z,66.56
2022-08-23T01:15:37.970Z,65.76
2022-08-23T01:16:38.173Z,66.06
2022-08-23T01:17:38.421Z,66.36
2022-08-23T01:18:38.534Z,66.46
2022-08-23T01:19:38.688Z,66.26
2022-08-23T01:20:38.935Z,66.26
2022-08-23T01:21:41.191Z,66.66
2022-08-23T01:22:39.231Z,66.56
2022-08-23T01:23:39.452Z,66.66
2022-08-23T01:25:05.879Z,66.36
2022-08-23T01:25:40.743Z,66.36
2022-08-23T01:26:40.026Z,65.96
2022-08-23T01:27:40.149Z,65.86
2022-08-23T01:28:40.264Z,66.16
2022-08-23T01:29:40.424Z,65.66
2022-08-23T01:30:40.667Z,65.66
2022-08-23T01:31:40.784Z,65.56
2022-08-23T01:32:40.946Z,65.56
2022-08-23T01:33:41.186Z,65.26
2022-08-23T01:34:45.946Z,65.36
2022-08-23T01:35:42.564Z,65.46
2022-08-23T01:36:41.664Z,65.46
2022-08-23T01:37:41.824Z,65.26
2022-08-23T01:38:41.994Z,65.16
2022-08-23T01:39:42.226Z,65.26
2022-08-23T01:40:42.317Z,65.26
2022-08-23T01:41:42.485Z,64.76
2022-08-23T01:42:42.664Z,64.76
2022-08-23T01:43:42.827Z,64.86
2022-08-23T01:44:43.037Z,65.06
2022-08-23T01:45:43.229Z,64.96
2022-08-23T01:46:43.345Z,64.56
2022-08-23T01:47:43.505Z,64.86
2022-08-23T01:48:43.732Z,64.96
2022-08-23T01:49:43.845Z,64.96
2022-08-23T01:50:44.028Z,65.06
2022-08-23T01:51:44.257Z,65.16
2022-08-23T01:52:47.028Z,65.36
2022-08-23T01:53:45.517Z,65.16
2022-08-23T01:54:44.797Z,65.19
2022-08-23T01:55:44.892Z,65.49
2022-08-23T01:56:45.047Z,65.39
2022-08-23T01:57:46.935Z,65.19
2022-08-23T01:58:45.416Z,65.29
2022-08-23T01:59:45.566Z,65.19
2022-08-23T02:00:45.768Z,65.19
2022-08-23T02:01:45.976Z,65.29
2022-08-23T02:02:46.077Z,64.99
2022-08-23T02:03:46.255Z,65.49
2022-08-23T02:04:46.416Z,65.69
2022-08-23T02:05:46.641Z,65.99
2022-08-23T02:06:46.826Z,65.79
2022-08-23T02:07:46.937Z,66.29
2022-08-23T02:08:47.137Z,66.32
2022-08-23T02:09:47.380Z,66.63
2022-08-23T02:10:47.505Z,66.63
2022-08-23T02:11:47.665Z,66.82
2022-08-23T02:12:47.950Z,66.82
2022-08-23T02:13:48.021Z,66.72
2022-08-23T02:14:48.177Z,66.82
2022-08-23T02:15:48.452Z,66.72
2022-08-23T02:17:03.340Z,66.63
2022-08-23T02:17:49.689Z,66.63
2022-08-23T02:18:48.888Z,66.52
2022-08-23T02:19:49.089Z,66.32
2022-08-23T02:20:49.253Z,66.52
2022-08-23T02:21:49.400Z,66.42
2022-08-23T02:22:49.669Z,66.42
2022-08-23T02:23:49.778Z,66.32
2022-08-23T02:24:49.989Z,66.22
2022-08-23T02:25:50.262Z,66.02
2022-08-23T02:26:50.309Z,65.79
2022-08-23T02:27:51.489Z,66.09
2022-08-23T02:28:50.771Z,65.89
2022-08-23T02:29:52.817Z,65.89
2022-08-23T02:30:51.039Z,65.89
2022-08-23T02:31:51.292Z,65.59
2022-08-23T02:32:51.418Z,65.69
2022-08-23T02:35:06.332Z,65.79
2022-08-23T02:36:06.657Z,66.02
2022-08-23T02:37:06.685Z,66.13
2022-08-23T02:38:06.853Z,65.92
2022-08-23T02:39:07.105Z,65.83
2022-08-23T02:40:07.276Z,65.92
2022-08-23T02:41:07.483Z,66.02
2022-08-23T02:42:07.549Z,66.02
2022-08-23T02:43:07.714Z,65.92
2022-08-23T02:44:07.956Z,65.83
2022-08-23T02:45:08.072Z,65.83
2022-08-23T02:46:08.244Z,65.92
2022-08-23T02:47:08.427Z,65.62
2022-08-23T02:48:08.653Z,65.52
2022-08-23T02:49:08.774Z,65.72
2022-08-23T02:50:08.944Z,65.29
2022-08-23T02:51:09.215Z,65.39
2022-08-23T02:52:09.304Z,65.29
2022-08-23T02:53:09.464Z,65.49
2022-08-23T02:54:09.726Z,65.49
2022-08-23T02:55:09.810Z,65.39
2022-08-23T02:56:21.160Z,65.49
2022-08-23T02:57:11.221Z,65.49
2022-08-23T02:58:10.350Z,65.29
2022-08-23T02:59:10.513Z,65.59
2022-08-23T03:00:10.748Z,65.49
2022-08-23T03:01:10.872Z,65.39
2022-08-23T03:02:11.031Z,65.49
2022-08-23T03:03:11.159Z,65.19
2022-08-23T03:04:11.392Z,65.09
2022-08-23T03:05:11.527Z,65.39
2022-08-23T03:06:25.810Z,65.19
2022-08-23T03:07:12.928Z,65.09
2022-08-23T03:08:12.035Z,64.99
2022-08-23T03:09:12.196Z,65.29
2022-08-23T03:10:12.488Z,65.29
2022-08-23T03:11:12.535Z,65.29
2022-08-23T03:12:12.787Z,64.99
2022-08-23T03:13:12.857Z,65.29
2022-08-23T03:14:13.026Z,65.39
2022-08-23T03:15:13.267Z,65.29
2022-08-23T03:16:13.392Z,65.39
2022-08-23T03:17:13.547Z,65.59
2022-08-23T03:18:13.726Z,65.39
2022-08-23T03:19:13.930Z,65.29
2022-08-23T03:20:14.087Z,64.99
2022-08-23T03:21:14.259Z,65.69
2022-08-23T03:22:14.492Z,65.69
2022-08-23T03:23:14.626Z,65.59
2022-08-23T03:24:14.788Z,65.49
2022-08-23T03:25:15.057Z,65.49
2022-08-23T03:26:15.117Z,65.39
2022-08-23T03:27:15.276Z,65.49
2022-08-23T03:28:15.576Z,65.29
2022-08-23T03:29:15.617Z,65.49
2022-08-23T03:30:19.684Z,65.29
2022-08-23T03:31:16.078Z,65.39
2022-08-23T03:32:16.150Z,65.49
2022-08-23T03:33:16.334Z,65.62
2022-08-23T03:34:16.561Z,65.83
2022-08-23T03:35:16.727Z,65.52
2022-08-23T03:36:16.835Z,65.72
2022-08-23T03:37:17.046Z,65.52
2022-08-23T03:38:17.248Z,65.83
2022-08-23T03:39:17.356Z,65.62
2022-08-23T03:40:17.599Z,65.62
2022-08-23T03:41:17.768Z,65.33
2022-08-23T03:42:17.866Z,65.42
2022-08-23T03:43:18.037Z,65.62
2022-08-23T03:44:18.283Z,65.42
2022-08-23T03:45:18.398Z,65.62
2022-08-23T03:46:18.547Z,65.72
2022-08-23T03:47:18.800Z,65.52
2022-08-23T03:48:19.870Z,65.52
2022-08-23T03:49:19.027Z,65.42
2022-08-23T03:50:19.301Z,65.12
2022-08-23T03:51:19.416Z,65.09
2022-08-23T03:52:19.547Z,65.39
2022-08-23T03:53:19.737Z,65.52
2022-08-23T03:54:19.950Z,65.52
2022-08-23T03:55:20.047Z,65.42
2022-08-23T03:56:20.217Z,65.42
2022-08-23T03:57:20.466Z,65.52
2022-08-23T03:58:20.567Z,65.33
2022-08-23T03:59:20.759Z,65.83
2022-08-23T04:00:21.016Z,65.62
2022-08-23T04:01:24.169Z,65.52
2022-08-23T04:02:22.232Z,65.42
2022-08-23T04:03:21.490Z,65.52
2022-08-23T04:04:21.601Z,65.52
2022-08-23T04:05:21.750Z,65.42
2022-08-23T04:06:22.031Z,65.33
2022-08-23T04:07:22.166Z,65.62
2022-08-23T04:08:28.064Z,65.52
2022-08-23T04:09:23.519Z,65.52
2022-08-23T04:10:22.704Z,65.42
2022-08-23T04:11:22.838Z,65.22
2022-08-23T04:12:23.033Z,65.42
2022-08-23T04:13:23.280Z,65.22
2022-08-23T04:14:23.378Z,65.22
2022-08-23T04:15:23.556Z,65.33
2022-08-23T04:16:23.822Z,65.22
2022-08-23T04:17:23.971Z,65.22
2022-08-23T04:18:24.099Z,65.02
2022-08-23T04:19:24.411Z,65.22
2022-08-23T04:20:24.486Z,65.22
2022-08-23T04:21:24.630Z,65.02
2022-08-23T04:22:24.860Z,65.02
2022-08-23T04:23:24.990Z,65.33
2022-08-23T04:24:25.179Z,65.42
2022-08-23T04:25:34.826Z,65.12
2022-08-23T04:26:30.142Z,65.33
2022-08-23T04:27:25.648Z,65.02
2022-08-23T04:28:25.842Z,64.92
2022-08-23T04:29:34.188Z,64.92
2022-08-23T04:30:27.240Z,65.02
2022-08-23T04:31:26.371Z,64.92
2022-08-23T04:32:28.388Z,65.02
2022-08-23T04:33:26.800Z,64.92
2022-08-23T04:34:28.806Z,64.92
2022-08-23T04:35:27.082Z,65.02
2022-08-23T04:36:27.310Z,64.92
2022-08-23T04:37:28.439Z,64.92
2022-08-23T04:38:27.542Z,64.83
2022-08-23T04:39:27.850Z,64.92
2022-08-23T04:40:27.989Z,64.92
2022-08-23T04:41:28.081Z,65.12
2022-08-23T04:42:28.304Z,65.02
2022-08-23T04:43:28.495Z,64.92
2022-08-23T04:44:28.631Z,65.02
2022-08-23T04:45:28.812Z,65.02
2022-08-23T04:46:29.018Z,64.92
2022-08-23T04:47:29.170Z,64.92
2022-08-23T04:48:29.302Z,64.83
2022-08-23T04:49:29.584Z,64.92
2022-08-23T04:50:29.642Z,64.83
2022-08-23T04:51:29.792Z,64.92
2022-08-23T04:52:30.096Z,64.79
2022-08-23T04:53:30.144Z,64.79
2022-08-23T04:54:30.339Z,64.89
2022-08-23T04:55:30.582Z,64.89
2022-08-23T04:56:30.674Z,64.69
2022-08-23T04:57:30.842Z,64.79
2022-08-23T04:58:31.094Z,64.79
2022-08-23T04:59:31.252Z,64.79
2022-08-23T05:00:31.416Z,64.89
2022-08-23T05:01:31.621Z,64.89
2022-08-23T05:02:31.767Z,64.79
2022-08-23T05:03:31.871Z,64.79
2022-08-23T05:04:32.066Z,64.79
2022-08-23T05:05:32.325Z,65.09
2022-08-23T05:06:32.404Z,65.09
2022-08-23T05:07:42.678Z,65.09
2022-08-23T05:08:33.825Z,64.99
2022-08-23T05:09:32.924Z,64.89
2022-08-23T05:10:33.084Z,64.89
2022-08-23T05:11:33.265Z,64.79
2022-08-23T05:12:33.443Z,64.89
2022-08-23T05:13:34.962Z,64.79
2022-08-23T05:14:33.809Z,64.89
2022-08-23T05:15:33.973Z,64.79
2022-08-23T05:16:34.138Z,64.59
2022-08-23T05:17:34.301Z,64.59
2022-08-23T05:18:34.555Z,64.56
2022-08-23T05:19:34.683Z,64.16
2022-08-23T05:20:34.824Z,64.16
2022-08-23T05:21:35.034Z,63.86
2022-08-23T05:22:35.218Z,63.63
2022-08-23T05:23:35.344Z,63.53
2022-08-23T05:24:35.535Z,63.53
2022-08-23T05:25:35.796Z,63.53
2022-08-23T05:26:35.884Z,63.43
2022-08-23T05:27:36.064Z,63.43
2022-08-23T05:28:36.331Z,63.40
2022-08-23T05:29:36.437Z,63.30
2022-08-23T05:30:36.582Z,63.20
2022-08-23T05:31:36.895Z,62.81
2022-08-23T05:32:36.951Z,62.90
2022-08-23T05:33:37.125Z,62.90
2022-08-23T05:34:37.404Z,62.90
2022-08-23T05:35:37.537Z,63.00
2022-08-23T05:36:37.656Z,63.20
2022-08-23T05:37:37.835Z,63.20
2022-08-23T05:38:38.084Z,63.10
2022-08-23T05:39:38.216Z,62.87
2022-08-23T05:40:38.376Z,62.87
2022-08-23T05:41:38.729Z,62.37
2022-08-23T05:42:38.726Z,62.04
2022-08-23T05:43:38.906Z,62.04
2022-08-23T05:44:39.208Z,61.85
2022-08-23T05:45:39.278Z,61.65
2022-08-23T05:46:39.417Z,61.71
2022-08-23T05:47:39.697Z,61.71
2022-08-23T05:48:39.813Z,61.39
2022-08-23T05:49:39.996Z,60.89
2022-08-23T05:50:40.179Z,60.79
2022-08-23T05:51:40.361Z,60.69
2022-08-23T05:52:40.488Z,60.69
2022-08-23T05:53:40.668Z,60.69
2022-08-23T05:54:40.975Z,60.56
2022-08-23T05:55:41.037Z,60.36
2022-08-23T05:56:41.168Z,60.79
2022-08-23T05:57:41.428Z,60.69
2022-08-23T05:58:41.535Z,60.69
2022-08-23T05:59:41.833Z,61.09
2022-08-23T06:00:42.090Z,61.29
2022-08-23T06:01:42.084Z,61.29
2022-08-23T06:02:42.270Z,61.49
2022-08-23T06:03:42.502Z,61.69
2022-08-23T06:04:42.640Z,62.01
2022-08-23T06:05:42.767Z,62.31
2022-08-23T06:06:42.958Z,62.71
2022-08-23T06:07:43.165Z,62.71
2022-08-23T06:08:43.286Z,62.81
2022-08-23T06:09:43.480Z,62.74
2022-08-23T06:10:43.719Z,62.71
2022-08-23T06:11:43.848Z,62.81
2022-08-23T06:12:44.022Z,63.21
2022-08-23T06:13:44.330Z,63.31
2022-08-23T06:14:44.418Z,63.21
2022-08-23T06:15:44.549Z,63.08
2022-08-23T06:16:44.819Z,62.68
2022-08-23T06:17:44.920Z,62.38
2022-08-23T06:18:45.081Z,61.88
2022-08-23T06:19:45.370Z,61.79
2022-08-23T06:20:45.534Z,61.88
2022-08-23T06:21:45.599Z,62.38
2022-08-23T06:22:45.813Z,62.29
2022-08-23T06:23:45.968Z,62.48
2022-08-23T06:24:46.123Z,62.38
2022-08-23T06:25:46.308Z,62.18
2022-08-23T06:26:46.534Z,62.38
2022-08-23T06:27:47.141Z,62.18
2022-08-23T06:28:50.665Z,62.29
2022-08-23T06:29:47.072Z,62.18
2022-08-23T06:30:47.172Z,62.38
2022-08-23T06:31:47.446Z,62.35
2022-08-23T06:32:47.592Z,62.26
2022-08-23T06:33:47.696Z,62.05
2022-08-23T06:34:47.831Z,61.85
2022-08-23T06:35:47.980Z,61.85
2022-08-23T06:36:48.152Z,61.36
2022-08-23T06:37:48.331Z,61.46
2022-08-23T06:38:48.519Z,61.66
2022-08-23T06:39:48.743Z,61.23
2022-08-23T06:40:48.963Z,61.43
2022-08-23T06:41:49.065Z,60.93
2022-08-23T06:42:49.243Z,60.93
2022-08-23T06:43:49.500Z,60.73
2022-08-23T06:44:49.640Z,60.93
2022-08-23T06:45:55.126Z,60.73
2022-08-23T06:46:51.072Z,61.03
2022-08-23T06:47:50.176Z,61.23
2022-08-23T06:48:50.313Z,61.03
2022-08-23T06:49:51.106Z,60.80
2022-08-23T06:50:51.719Z,60.70
2022-08-23T06:51:50.830Z,60.30
2022-08-23T06:52:51.003Z,60.70
2022-08-23T06:53:51.226Z,60.21
2022-08-23T06:54:51.324Z,60.30
2022-08-23T06:55:51.493Z,60.40
2022-08-23T06:56:51.759Z,60.40
2022-08-23T06:57:51.846Z,60.17
2022-08-23T06:58:52.024Z,59.98
2022-08-23T06:59:52.327Z,59.68
2022-08-23T07:00:57.200Z,59.78
2022-08-23T07:01:53.618Z,59.58
2022-08-23T07:02:52.839Z,59.55
2022-08-23T07:03:52.926Z,58.86
2022-08-23T07:04:53.065Z,58.95
2022-08-23T07:05:53.244Z,58.95
2022-08-23T07:06:53.515Z,59.15
2022-08-23T07:07:53.564Z,58.65
2022-08-23T07:08:53.744Z,58.75
2022-08-23T07:09:54.063Z,59.03
2022-08-23T07:10:54.095Z,58.73
2022-08-23T07:11:54.278Z,58.43
2022-08-23T07:12:54.570Z,58.43
2022-08-23T07:13:54.648Z,58.20
2022-08-23T07:14:54.836Z,58.00
2022-08-23T07:15:55.158Z,57.68
2022-08-23T07:16:55.203Z,57.28
2022-08-23T07:17:55.356Z,57.15
2022-08-23T07:18:55.529Z,56.46
2022-08-23T07:19:55.711Z,56.26
2022-08-23T07:20:55.914Z,56.26
2022-08-23T07:21:56.068Z,56.46
2022-08-23T07:22:56.267Z,56.56
2022-08-23T07:23:56.428Z,56.34
2022-08-23T07:24:56.537Z,56.63
2022-08-23T07:25:56.727Z,55.61
2022-08-23T07:26:56.920Z,54.99
2022-08-23T07:27:57.151Z,55.06
2022-08-23T07:28:57.258Z,53.95
2022-08-23T07:29:57.475Z,53.16
2022-08-23T07:30:57.579Z,53.03
2022-08-23T07:31:57.860Z,53.23
2022-08-23T07:32:57.972Z,53.42
2022-08-23T07:33:58.905Z,53.33
2022-08-23T07:34:58.278Z,52.81
2022-08-23T07:35:58.558Z,52.91
2022-08-23T07:36:58.649Z,51.99
2022-08-23T07:37:58.840Z,52.06
2022-08-23T07:38:59.131Z,52.36
2022-08-23T07:39:59.266Z,51.15
2022-08-23T07:40:59.379Z,50.85
2022-08-23T07:41:59.596Z,51.25
2022-08-23T07:42:59.960Z,50.36
2022-08-23T07:43:59.914Z,51.25
2022-08-23T07:45:00.105Z,50.66
2022-08-23T07:46:00.308Z,50.66
2022-08-23T07:47:00.771Z,50.66
2022-08-23T07:48:00.673Z,50.76
2022-08-23T07:49:00.861Z,51.25
2022-08-23T07:50:00.922Z,50.76
2022-08-23T07:51:02.188Z,51.28
2022-08-23T07:52:01.352Z,51.97
2022-08-23T07:53:01.432Z,51.47
2022-08-23T07:54:01.624Z,50.85
2022-08-23T07:55:01.863Z,50.95
2022-08-23T07:56:03.203Z,51.15
2022-08-23T07:57:02.111Z,50.56
2022-08-23T07:58:02.557Z,50.85
2022-08-23T07:59:02.494Z,50.56
2022-08-23T08:00:02.603Z,50.85
2022-08-23T08:01:02.800Z,50.34
2022-08-23T08:02:03.091Z,50.34
2022-08-23T08:03:03.212Z,50.02
2022-08-23T08:04:03.322Z,50.02
2022-08-23T08:05:03.593Z,48.91
2022-08-23T08:06:03.673Z,49.01
2022-08-23T08:07:19.559Z,48.29
2022-08-23T08:08:05.129Z,47.36
2022-08-23T08:09:04.203Z,46.53
2022-08-23T08:10:04.385Z,46.70
2022-08-23T08:11:04.632Z,45.20
2022-08-23T08:12:04.740Z,45.09
2022-08-23T08:13:04.923Z,45.16
2022-08-23T08:14:05.231Z,43.47
2022-08-23T08:15:05.278Z,42.79
2022-08-23T08:16:05.457Z,42.98
2022-08-23T08:17:05.598Z,42.68
2022-08-23T08:18:05.755Z,42.80
2022-08-23T08:19:07.823Z,43.22
2022-08-23T08:20:06.076Z,44.20
2022-08-23T08:21:06.256Z,45.03
2022-08-23T08:22:06.498Z,45.23
2022-08-23T08:23:06.607Z,44.56
2022-08-23T08:24:06.811Z,44.78
2022-08-23T08:25:07.077Z,44.95
2022-08-23T08:26:07.159Z,44.44
2022-08-23T08:27:07.922Z,44.22
2022-08-23T08:28:11.472Z,44.02
2022-08-23T08:29:08.701Z,43.29
2022-08-23T08:30:07.838Z,42.76
2022-08-23T08:31:08.274Z,41.58
2022-08-23T08:32:08.212Z,41.35
2022-08-23T08:33:09.378Z,40.70
2022-08-23T08:34:08.654Z,39.78
2022-08-23T08:35:08.792Z,38.49
2022-08-23T08:36:08.910Z,39.06
2022-08-23T08:37:09.089Z,37.89
2022-08-23T08:38:09.327Z,38.14
2022-08-23T08:39:10.416Z,37.43
2022-08-23T08:40:09.652Z,36.25
2022-08-23T08:41:09.856Z,36.45
2022-08-23T08:42:09.991Z,35.63
2022-08-23T08:43:10.181Z,35.52
2022-08-23T08:44:13.603Z,34.90
2022-08-23T08:45:11.542Z,34.40
2022-08-23T08:46:10.724Z,34.19
2022-08-23T08:47:10.993Z,34.20
2022-08-23T08:48:13.554Z,34.52
2022-08-23T08:49:11.313Z,34.20
2022-08-23T08:50:11.473Z,33.41
2022-08-23T08:51:11.663Z,33.39
2022-08-23T08:52:11.783Z,33.38
2022-08-23T08:53:11.994Z,32.49
2022-08-23T08:54:12.217Z,31.89
2022-08-23T08:55:12.305Z,31.79
2022-08-23T08:56:12.485Z,31.57
2022-08-23T08:57:13.744Z,31.16
2022-08-23T08:58:12.845Z,30.66
2022-08-23T08:59:13.049Z,29.97
2022-08-23T09:00:13.269Z,30.38
2022-08-23T09:01:13.416Z,31.16
2022-08-23T09:02:31.946Z,31.10
2022-08-23T09:03:14.938Z,31.62
2022-08-23T09:04:13.959Z,32.71
2022-08-23T09:05:14.128Z,32.89
2022-08-23T09:06:14.316Z,32.10
2022-08-23T09:07:14.517Z,31.79
2022-08-23T09:08:14.656Z,31.99
2022-08-23T09:09:14.867Z,32.18
2022-08-23T09:10:15.062Z,31.29
2022-08-23T09:11:15.198Z,31.67
2022-08-23T09:12:16.158Z,31.15
2022-08-23T09:13:15.611Z,29.86
2022-08-23T09:14:15.789Z,29.57
2022-08-23T09:15:15.913Z,30.04
2022-08-23T09:16:16.211Z,29.35
2022-08-23T09:17:16.242Z,28.48
2022-08-23T09:18:16.430Z,28.58
2022-08-23T09:19:16.741Z,29.55
2022-08-23T09:20:16.792Z,30.12
2022-08-23T09:21:16.982Z,28.66
2022-08-23T09:22:17.245Z,28.64
2022-08-23T09:23:17.351Z,27.39
2022-08-23T09:24:17.532Z,27.29
2022-08-23T09:25:17.768Z,27.80
2022-08-23T09:26:17.933Z,28.29
2022-08-23T09:27:18.092Z,28.02
2022-08-23T09:28:18.260Z,28.50
2022-08-23T09:29:18.529Z,28.50
2022-08-23T09:30:18.633Z,28.59
2022-08-23T09:31:18.825Z,29.06
2022-08-23T09:32:19.115Z,28.88
2022-08-23T09:33:19.164Z,29.06
2022-08-23T09:34:19.373Z,29.06
2022-08-23T09:35:19.596Z,27.44
2022-08-23T09:36:19.686Z,27.53
2022-08-23T09:37:19.864Z,28.70
2022-08-23T09:38:20.113Z,29.59
2022-08-23T09:39:20.260Z,29.12
2022-08-23T09:40:20.451Z,30.21
2022-08-23T09:41:20.637Z,30.44
2022-08-23T09:42:20.776Z,31.53
2022-08-23T09:43:21.935Z,31.76
2022-08-23T09:44:21.130Z,32.37
2022-08-23T09:45:21.295Z,32.78
2022-08-23T09:46:21.441Z,33.26
2022-08-23T09:47:21.608Z,33.96
2022-08-23T09:48:21.849Z,34.99
2022-08-23T09:49:21.969Z,35.80
2022-08-23T09:50:22.118Z,35.95
2022-08-23T09:51:22.382Z,37.75
2022-08-23T09:52:22.533Z,38.24
2022-08-23T09:53:22.662Z,37.47
2022-08-23T09:54:22.959Z,37.26
2022-08-23T09:55:23.013Z,37.14
2022-08-23T09:56:23.180Z,36.33
2022-08-23T09:57:23.449Z,36.51
2022-08-23T09:58:23.558Z,35.59
2022-08-23T09:59:26.484Z,34.50
2022-08-23T10:00:23.945Z,34.58
2022-08-23T10:01:24.164Z,34.53
2022-08-23T10:02:24.262Z,33.44
2022-08-23T10:03:24.446Z,33.06
2022-08-23T10:04:24.767Z,33.85
2022-08-23T10:05:24.820Z,33.85
2022-08-23T10:06:24.983Z,33.26
2022-08-23T10:07:26.250Z,33.83
2022-08-23T10:08:25.344Z,34.03
2022-08-23T10:09:25.543Z,33.06
2022-08-23T10:10:25.772Z,33.67
2022-08-23T10:11:25.895Z,34.86
2022-08-23T10:12:26.073Z,34.78
2022-08-23T10:13:26.366Z,34.58
2022-08-23T10:14:28.795Z,35.08
2022-08-23T10:15:26.595Z,35.39
2022-08-23T10:16:26.839Z,36.00
2022-08-23T10:17:27.002Z,37.07
2022-08-23T10:18:27.175Z,36.80
2022-08-23T10:19:27.345Z,37.11
2022-08-23T10:20:27.698Z,37.91
2022-08-23T10:21:27.663Z,37.71
2022-08-23T10:22:27.836Z,37.73
2022-08-23T10:23:28.089Z,38.24
2022-08-23T10:24:28.223Z,39.31
2022-08-23T10:25:28.356Z,38.73
2022-08-23T10:26:28.619Z,39.53
2022-08-23T10:27:28.718Z,38.16
2022-08-23T10:28:28.887Z,38.55
2022-08-23T10:29:29.188Z,38.47
2022-08-23T10:30:29.262Z,39.27
2022-08-23T10:31:29.486Z,38.20
2022-08-23T10:32:29.638Z,39.27
2022-08-23T10:33:29.797Z,39.47
2022-08-23T10:34:30.125Z,39.37
2022-08-23T10:35:30.138Z,38.29
2022-08-23T10:36:30.344Z,38.41
2022-08-23T10:37:30.483Z,38.90
2022-08-23T10:38:30.640Z,40.68
2022-08-23T10:39:30.828Z,39.61
2022-08-23T10:40:31.027Z,40.70
2022-08-23T10:41:31.173Z,39.82
2022-08-23T10:42:31.397Z,40.01
2022-08-23T10:43:31.529Z,40.21
2022-08-23T10:44:31.751Z,40.51
2022-08-23T10:45:31.984Z,39.82
2022-08-23T10:46:32.131Z,40.21
2022-08-23T10:47:32.245Z,40.51
2022-08-23T10:48:32.493Z,40.01
2022-08-23T10:49:32.621Z,40.03
2022-08-23T10:50:32.762Z,39.35
2022-08-23T10:51:33.012Z,40.33
2022-08-23T10:52:33.152Z,41.33
2022-08-23T10:53:33.277Z,38.78
2022-08-23T10:54:33.450Z,38.39
2022-08-23T10:55:33.670Z,39.19
2022-08-23T10:56:33.785Z,39.19
2022-08-23T10:57:33.955Z,40.19
2022-08-23T10:58:34.192Z,41.08
2022-08-23T10:59:34.338Z,41.96
2022-08-23T11:00:34.492Z,40.39
2022-08-23T11:01:34.840Z,40.61
2022-08-23T11:02:34.911Z,41.49
2022-08-23T11:03:35.014Z,41.56
2022-08-23T11:04:35.304Z,41.17
2022-08-23T11:05:35.382Z,39.32
2022-08-23T11:06:35.516Z,40.01
2022-08-23T11:07:35.756Z,40.58
2022-08-23T11:08:35.884Z,40.78
2022-08-23T11:09:36.046Z,41.77
2022-08-23T11:10:36.238Z,40.48
2022-08-23T11:11:36.439Z,40.58
2022-08-23T11:12:36.583Z,41.08
2022-08-23T11:13:36.748Z,39.31
2022-08-23T11:14:37.012Z,39.72
2022-08-23T11:15:37.207Z,40.41
2022-08-23T11:16:38.315Z,40.11
2022-08-23T11:17:37.486Z,39.92
2022-08-23T11:18:37.657Z,41.09
2022-08-23T11:19:37.924Z,41.00
2022-08-23T11:20:38.027Z,39.52
2022-08-23T11:21:38.168Z,39.23
2022-08-23T11:22:38.340Z,39.94
2022-08-23T11:23:38.575Z,39.86
2022-08-23T11:24:38.706Z,40.84
2022-08-23T11:25:38.849Z,42.32
2022-08-23T11:26:39.097Z,42.52
2022-08-23T11:27:39.229Z,40.64
2022-08-23T11:28:39.410Z,40.86
2022-08-23T11:29:39.725Z,41.35
2022-08-23T11:30:39.820Z,41.55
2022-08-23T11:31:39.941Z,42.04
2022-08-23T11:32:40.215Z,41.65
2022-08-23T11:33:40.290Z,42.55
2022-08-23T11:34:40.482Z,43.05
2022-08-23T11:35:43.420Z,40.88
2022-08-23T11:36:40.893Z,40.48
2022-08-23T11:37:41.001Z,41.08
2022-08-23T11:38:41.215Z,41.27
2022-08-23T11:39:41.470Z,41.27
2022-08-23T11:40:41.560Z,39.40
2022-08-23T11:41:41.752Z,39.60
2022-08-23T11:42:41.947Z,40.19
2022-08-23T11:43:42.073Z,40.86
2022-08-23T11:44:42.263Z,40.17
2022-08-23T11:45:42.480Z,41.16
2022-08-23T11:46:42.584Z,40.17
2022-08-23T11:47:42.776Z,40.96
2022-08-23T11:48:43.489Z,41.24
2022-08-23T11:49:43.135Z,40.45
2022-08-23T11:50:43.293Z,40.74
2022-08-23T11:51:43.500Z,39.76
2022-08-23T11:52:43.658Z,37.20
2022-08-23T11:53:43.807Z,37.01
2022-08-23T11:54:44.025Z,38.09
2022-08-23T11:55:44.142Z,38.97
2022-08-23T11:56:46.272Z,38.09
2022-08-23T11:57:44.477Z,38.07
2022-08-23T11:58:44.686Z,38.07
2022-08-23T11:59:44.773Z,37.77
2022-08-23T12:00:44.954Z,39.64
2022-08-23T12:01:45.197Z,41.80
2022-08-23T12:02:45.423Z,41.02
2022-08-23T12:03:46.069Z,39.54
2022-08-23T12:04:45.734Z,39.25
2022-08-23T12:05:45.857Z,40.43
2022-08-23T12:06:50.526Z,39.34
2022-08-23T12:07:47.298Z,41.61
2022-08-23T12:08:46.429Z,40.03
2022-08-23T12:09:46.558Z,39.34
2022-08-23T12:10:46.818Z,39.54
2022-08-23T12:11:46.919Z,37.87
2022-08-23T12:12:47.497Z,38.28
2022-08-23T12:13:47.366Z,37.59
2022-08-23T12:14:47.467Z,38.58
2022-08-23T12:15:47.663Z,39.17
2022-08-23T12:16:49.998Z,39.76
2022-08-23T12:17:49.441Z,38.48
2022-08-23T12:18:48.227Z,38.87
2022-08-23T12:19:48.846Z,39.76
2022-08-23T12:20:48.786Z,40.94
2022-08-23T12:21:48.666Z,41.73
2022-08-23T12:22:48.849Z,40.05
2022-08-23T12:23:49.138Z,40.74
2022-08-23T12:24:52.447Z,40.64
2022-08-23T12:25:49.363Z,41.53
2022-08-23T12:26:49.577Z,41.73
2022-08-23T12:27:49.700Z,39.86
2022-08-23T12:28:49.912Z,39.64
2022-08-23T12:29:50.114Z,40.13
2022-08-23T12:30:50.278Z,39.15
2022-08-23T12:31:50.469Z,40.23
2022-08-23T12:32:50.648Z,40.23
2022-08-23T12:33:50.832Z,40.43
2022-08-23T12:34:50.953Z,41.22
2022-08-23T12:35:51.136Z,40.33
2022-08-23T12:36:51.352Z,38.95
2022-08-23T12:37:51.608Z,39.47
2022-08-23T12:38:51.678Z,39.86
2022-08-23T12:39:51.898Z,39.25
2022-08-23T12:40:54.539Z,38.46
2022-08-23T12:41:52.163Z,38.95
2022-08-23T12:42:52.350Z,39.84
2022-08-23T12:43:52.604Z,39.82
2022-08-23T12:44:52.804Z,39.32
2022-08-23T12:45:52.937Z,38.84
2022-08-23T12:46:53.055Z,38.84
2022-08-23T12:47:53.373Z,39.90
2022-08-23T12:48:53.446Z,40.69
2022-08-23T12:49:53.631Z,39.70
2022-08-23T12:50:53.886Z,41.27
2022-08-23T12:51:53.989Z,40.27
2022-08-23T12:52:54.225Z,40.96
2022-08-23T12:53:54.355Z,39.48
2022-08-23T12:54:54.465Z,39.98
2022-08-23T12:55:54.666Z,39.39